Pittsboro, North Carolina
Current Conditions -  °F | °C
As of 10:15 PM on Monday 26 Jan 2015 (Local Time) from KTTA Reporting Station
Overcast Overcast  
Wind Chill: 41°   Ceiling: 2500
Heat Index: 45°   Visibility: 10mi
Dew Point: 42°   Wind: 6mph
Humidity: 92%   Direction: 320°NW
Pressure: 29.69"   Gusts: NA
Location:  35.72°N, 79.18°W
Report Text: KTTA 270315Z AUTO 32005KT 10SM BKN025 OVC032 07/06 A2969 RMK AO2 T00700058
Loading
Personal Weather Stations






























Interactive Weather Map New forecast layout! Learn more

10-Day Weather Forecast

Advertisements
Track Severe Weather on mobile